createdAt,value
2022-11-30T00:01:21.537Z,32.42
2022-11-30T00:03:49.607Z,34.90
2022-11-30T00:06:23.252Z,31.80
2022-11-30T00:08:55.575Z,34.22
2022-11-30T00:11:24.985Z,33.22
2022-11-30T00:13:52.127Z,33.65
2022-11-30T00:16:19.601Z,32.33
2022-11-30T00:18:47.143Z,31.73
2022-11-30T00:21:15.154Z,34.05
2022-11-30T00:23:44.655Z,33.13
2022-11-30T00:26:14.642Z,33.03
2022-11-30T00:28:44.043Z,33.08
2022-11-30T00:31:14.299Z,32.90
2022-11-30T00:33:42.113Z,32.83
2022-11-30T00:36:13.747Z,33.45
2022-11-30T00:38:41.022Z,35.97
2022-11-30T00:41:08.199Z,35.97
2022-11-30T00:43:36.074Z,33.83
2022-11-30T00:46:03.582Z,36.97
2022-11-30T00:48:31.066Z,35.33
2022-11-30T00:50:58.641Z,36.60
2022-11-30T00:53:25.925Z,38.38
2022-11-30T00:55:53.546Z,37.80
2022-11-30T00:58:20.789Z,36.47
2022-11-30T01:00:48.155Z,36.17
2022-11-30T01:03:15.573Z,40.75
2022-11-30T01:05:46.326Z,39.88
2022-11-30T01:08:14.116Z,37.92
2022-11-30T01:10:43.311Z,37.00
2022-11-30T01:13:13.082Z,37.67
2022-11-30T01:15:43.875Z,37.40
2022-11-30T01:18:11.942Z,38.33
2022-11-30T01:20:43.644Z,37.92
2022-11-30T01:23:11.417Z,36.70
2022-11-30T01:25:38.744Z,34.55
2022-11-30T01:28:06.344Z,35.60
2022-11-30T01:30:33.690Z,37.65
2022-11-30T01:33:05.063Z,35.53
2022-11-30T01:35:32.288Z,33.67
2022-11-30T01:37:59.524Z,33.47
2022-11-30T01:40:27.200Z,32.42
2022-11-30T01:42:54.485Z,34.35
2022-11-30T01:45:21.884Z,35.25
2022-11-30T01:47:54.121Z,34.03
2022-11-30T01:50:32.540Z,36.80
2022-11-30T01:53:00.141Z,33.03
2022-11-30T01:55:32.888Z,33.47
2022-11-30T01:58:11.667Z,31.50
2022-11-30T02:00:43.017Z,32.83
2022-11-30T02:03:56.443Z,34.70
2022-11-30T02:06:25.043Z,31.80
2022-11-30T02:08:53.697Z,33.35
2022-11-30T02:11:21.539Z,32.97
2022-11-30T02:14:12.492Z,36.95
2022-11-30T02:16:54.076Z,37.60
2022-11-30T02:19:55.653Z,36.83
2022-11-30T02:23:00.031Z,32.72
2022-11-30T02:25:58.269Z,34.75
2022-11-30T02:28:50.964Z,35.33
2022-11-30T02:31:24.355Z,36.95
2022-11-30T02:33:53.116Z,37.13
2022-11-30T02:36:21.381Z,34.35
2022-11-30T02:38:49.202Z,35.00
2022-11-30T02:41:16.466Z,35.92
2022-11-30T02:43:44.445Z,38.05
2022-11-30T02:46:28.037Z,36.42
2022-11-30T02:49:07.511Z,37.40
2022-11-30T02:51:37.800Z,34.15
2022-11-30T02:54:05.156Z,35.25
2022-11-30T02:56:33.480Z,36.17
2022-11-30T02:59:00.839Z,35.13
2022-11-30T03:01:28.198Z,35.80
2022-11-30T03:03:55.375Z,32.25
2022-11-30T03:06:22.666Z,35.15
2022-11-30T03:08:49.845Z,33.15
2022-11-30T03:11:17.052Z,34.85
2022-11-30T03:13:44.255Z,36.95
2022-11-30T03:16:13.257Z,34.65
2022-11-30T03:18:41.356Z,36.33
2022-11-30T03:21:10.663Z,34.83
2022-11-30T03:23:39.280Z,37.20
2022-11-30T03:26:08.424Z,34.50
2022-11-30T03:28:37.315Z,36.13
2022-11-30T03:31:05.085Z,40.58
2022-11-30T03:33:32.400Z,38.78
2022-11-30T03:36:05.428Z,35.05
2022-11-30T03:38:32.574Z,35.85
2022-11-30T03:41:05.784Z,36.55
2022-11-30T03:43:33.304Z,37.80
2022-11-30T03:46:01.246Z,35.72
2022-11-30T03:48:28.621Z,36.55
2022-11-30T03:50:55.899Z,40.60
2022-11-30T03:53:24.722Z,37.80
2022-11-30T03:55:54.352Z,34.42
2022-11-30T03:58:22.209Z,33.20
2022-11-30T04:00:50.059Z,34.67
2022-11-30T04:03:17.288Z,35.75
2022-11-30T04:05:44.768Z,32.42
2022-11-30T04:08:11.853Z,33.78
2022-11-30T04:10:39.205Z,34.28
2022-11-30T04:13:06.313Z,33.97
2022-11-30T04:15:33.505Z,33.60
2022-11-30T04:18:00.819Z,34.60
2022-11-30T04:20:27.976Z,34.20
2022-11-30T04:22:57.895Z,35.65
2022-11-30T04:25:25.783Z,33.55
2022-11-30T04:27:52.910Z,34.80
2022-11-30T04:30:20.214Z,38.55
2022-11-30T04:32:47.472Z,37.83
2022-11-30T04:35:14.969Z,38.78
2022-11-30T04:37:42.291Z,37.95
2022-11-30T04:40:09.953Z,35.30
2022-11-30T04:42:37.193Z,40.20
2022-11-30T04:45:04.669Z,38.55
2022-11-30T04:47:32.029Z,35.17
2022-11-30T04:49:59.239Z,37.08
2022-11-30T04:52:26.490Z,37.72
2022-11-30T04:54:53.915Z,32.88
2022-11-30T04:57:21.158Z,33.65
2022-11-30T04:59:48.333Z,33.42
2022-11-30T05:02:15.431Z,35.50
2022-11-30T05:04:42.653Z,36.42
2022-11-30T05:07:10.089Z,35.00
2022-11-30T05:09:37.283Z,37.17
2022-11-30T05:12:04.565Z,31.58
2022-11-30T05:14:31.781Z,32.90
2022-11-30T05:16:59.051Z,34.63
2022-11-30T05:19:26.172Z,32.22
2022-11-30T05:21:53.482Z,33.08
2022-11-30T05:24:20.632Z,31.83
2022-11-30T05:26:47.862Z,33.70
2022-11-30T05:29:15.084Z,33.13
2022-11-30T05:31:42.434Z,33.80
2022-11-30T05:34:09.805Z,34.38
2022-11-30T05:36:37.164Z,33.45
2022-11-30T05:39:04.717Z,35.00
2022-11-30T05:41:31.778Z,33.30
2022-11-30T05:43:59.062Z,34.60
2022-11-30T05:46:26.543Z,30.38
2022-11-30T05:48:53.918Z,30.88
2022-11-30T05:51:21.642Z,33.15
2022-11-30T05:53:49.242Z,33.90
2022-11-30T05:56:19.697Z,30.85
2022-11-30T05:58:47.765Z,32.10
2022-11-30T06:01:23.509Z,31.70
2022-11-30T06:03:51.461Z,33.25
2022-11-30T06:06:19.300Z,35.90
2022-11-30T06:08:48.017Z,30.52
2022-11-30T06:11:16.112Z,33.63
2022-11-30T06:13:43.669Z,30.70
2022-11-30T06:16:10.901Z,29.95
2022-11-30T06:18:38.664Z,30.33
2022-11-30T06:21:08.550Z,29.77
2022-11-30T06:23:36.149Z,29.98
2022-11-30T06:26:07.748Z,30.42
2022-11-30T06:28:36.012Z,33.42
2022-11-30T06:31:05.922Z,31.50
2022-11-30T06:33:34.454Z,31.67
2022-11-30T06:36:02.172Z,33.45
2022-11-30T06:38:29.719Z,34.28
2022-11-30T06:41:05.080Z,34.33
2022-11-30T06:43:39.927Z,32.25
2022-11-30T06:46:07.623Z,30.52
2022-11-30T06:48:36.200Z,30.85
2022-11-30T06:51:07.875Z,31.17
2022-11-30T06:53:35.717Z,29.15
2022-11-30T06:56:10.687Z,30.15
2022-11-30T06:58:40.090Z,35.50
2022-11-30T07:01:09.672Z,30.33
2022-11-30T07:03:37.440Z,31.88
2022-11-30T07:06:14.827Z,30.45
2022-11-30T07:08:43.260Z,29.98
2022-11-30T07:11:11.740Z,31.02
2022-11-30T07:13:39.223Z,31.05
2022-11-30T07:16:08.312Z,31.33
2022-11-30T07:18:35.720Z,32.13
2022-11-30T07:21:05.080Z,29.33
2022-11-30T07:23:55.849Z,32.27
2022-11-30T07:26:24.445Z,31.23
2022-11-30T07:28:58.798Z,30.67
2022-11-30T07:31:29.188Z,29.73
2022-11-30T07:33:57.929Z,32.40
2022-11-30T07:36:27.100Z,29.83
2022-11-30T07:38:54.301Z,28.67
2022-11-30T07:41:22.291Z,29.77
2022-11-30T07:43:49.515Z,27.38
2022-11-30T07:46:17.933Z,28.20
2022-11-30T07:48:45.999Z,27.88
2022-11-30T07:51:19.875Z,29.05
2022-11-30T07:53:47.974Z,28.95
2022-11-30T07:56:18.235Z,30.05
2022-11-30T07:58:47.107Z,28.63
2022-11-30T08:01:17.748Z,30.40
2022-11-30T08:03:45.272Z,30.75
2022-11-30T08:06:16.361Z,29.13
2022-11-30T08:08:45.174Z,30.90
2022-11-30T08:11:15.119Z,30.92
2022-11-30T08:13:42.879Z,29.85
2022-11-30T08:16:13.004Z,30.88
2022-11-30T08:18:40.920Z,30.42
2022-11-30T08:21:10.353Z,32.00
2022-11-30T08:23:40.242Z,32.22
2022-11-30T08:26:11.953Z,31.30
2022-11-30T08:28:39.993Z,31.00
2022-11-30T08:31:13.860Z,30.55
2022-11-30T08:33:41.172Z,32.75
2022-11-30T08:36:13.057Z,31.23
2022-11-30T08:38:41.778Z,30.90
2022-11-30T08:41:10.887Z,29.48
2022-11-30T08:43:38.485Z,32.92
2022-11-30T08:49:12.974Z,30.38
2022-11-30T08:54:30.763Z,29.05
2022-11-30T08:56:59.391Z,28.05
2022-11-30T08:59:27.102Z,32.03
2022-11-30T09:01:54.363Z,31.27
2022-11-30T09:04:21.775Z,31.35
2022-11-30T09:06:49.104Z,35.05
2022-11-30T09:09:16.391Z,28.33
2022-11-30T09:11:43.681Z,29.80
2022-11-30T09:14:11.155Z,30.25
2022-11-30T09:16:38.550Z,30.27
2022-11-30T09:19:06.017Z,30.85
2022-11-30T09:21:33.511Z,30.80
2022-11-30T09:24:00.860Z,30.50
2022-11-30T09:26:28.540Z,30.83
2022-11-30T09:28:56.167Z,30.38
2022-11-30T09:31:26.007Z,30.08
2022-11-30T09:33:56.407Z,29.45
2022-11-30T09:36:27.628Z,30.67
2022-11-30T09:38:57.427Z,31.90
2022-11-30T09:41:49.818Z,30.60
2022-11-30T09:44:43.238Z,29.48
2022-11-30T09:47:32.269Z,32.33
2022-11-30T09:50:30.307Z,29.70
2022-11-30T09:53:16.229Z,30.15
2022-11-30T09:55:45.356Z,30.70
2022-11-30T09:58:28.138Z,32.75
2022-11-30T10:00:55.859Z,30.20
2022-11-30T10:03:24.286Z,29.30
2022-11-30T10:06:11.224Z,31.08
2022-11-30T10:08:51.046Z,29.88
2022-11-30T10:11:46.846Z,29.48
2022-11-30T10:14:32.724Z,32.97
2022-11-30T10:17:20.174Z,32.17
2022-11-30T10:20:25.550Z,31.95
2022-11-30T10:23:09.782Z,31.75
2022-11-30T10:25:57.457Z,31.25
2022-11-30T10:28:51.841Z,33.55
2022-11-30T10:31:32.308Z,30.45
2022-11-30T10:34:13.903Z,29.58
2022-11-30T10:36:44.954Z,29.35
2022-11-30T10:39:22.859Z,30.67
2022-11-30T10:42:16.409Z,34.90
2022-11-30T10:44:59.617Z,31.80
2022-11-30T10:47:37.060Z,31.25
2022-11-30T10:50:06.470Z,31.75
2022-11-30T10:52:46.547Z,31.80
2022-11-30T10:57:54.405Z,31.58
2022-11-30T11:00:22.134Z,33.30
2022-11-30T11:02:50.554Z,34.63
2022-11-30T11:05:20.169Z,33.53
2022-11-30T11:07:50.280Z,33.30
2022-11-30T11:10:31.475Z,32.42
2022-11-30T11:12:59.339Z,32.40
2022-11-30T11:15:29.049Z,33.28
2022-11-30T11:18:23.142Z,34.92
2022-11-30T11:21:06.295Z,32.50
2022-11-30T11:23:40.054Z,30.98
2022-11-30T11:26:17.398Z,31.92
2022-11-30T11:28:47.296Z,32.33
2022-11-30T11:31:33.998Z,34.70
2022-11-30T11:34:01.767Z,34.00
2022-11-30T11:36:34.373Z,33.30
2022-11-30T11:39:01.771Z,32.67
2022-11-30T11:41:39.168Z,30.58
2022-11-30T11:44:09.405Z,33.63
2022-11-30T11:46:52.460Z,30.65
2022-11-30T11:49:23.994Z,31.30
2022-11-30T11:52:03.400Z,30.58
2022-11-30T11:54:42.635Z,31.77
2022-11-30T11:57:13.561Z,29.03
2022-11-30T12:00:02.547Z,27.48
2022-11-30T12:03:05.108Z,28.75
2022-11-30T12:05:50.443Z,27.90
2022-11-30T12:08:29.232Z,27.42
2022-11-30T12:11:12.611Z,28.02
2022-11-30T12:13:42.476Z,29.30
2022-11-30T12:16:12.505Z,29.10
2022-11-30T12:18:59.518Z,27.90
2022-11-30T12:21:38.181Z,28.08
2022-11-30T12:24:23.336Z,29.13
2022-11-30T12:27:27.859Z,29.88
2022-11-30T12:30:39.013Z,31.73
2022-11-30T12:33:33.377Z,31.63
2022-11-30T12:36:14.748Z,33.00
2022-11-30T12:38:59.171Z,30.35
2022-11-30T12:41:48.992Z,32.67
2022-11-30T12:44:41.930Z,32.40
2022-11-30T12:47:18.015Z,29.00
2022-11-30T12:50:02.231Z,29.63
2022-11-30T12:52:32.115Z,32.17
2022-11-30T12:55:24.134Z,29.92
2022-11-30T12:58:06.063Z,28.98
2022-11-30T13:01:06.943Z,28.65
2022-11-30T13:03:50.682Z,28.73
2022-11-30T13:06:23.649Z,27.77
2022-11-30T13:09:13.648Z,27.77
2022-11-30T13:11:43.711Z,29.05
2022-11-30T13:14:20.694Z,29.58
2022-11-30T13:16:51.142Z,28.63
2022-11-30T13:19:26.435Z,29.58
2022-11-30T13:22:03.048Z,28.90
2022-11-30T13:24:37.923Z,28.60
2022-11-30T13:27:23.055Z,28.10
2022-11-30T13:29:59.825Z,31.63
2022-11-30T13:32:56.753Z,28.67
2022-11-30T13:35:29.331Z,31.15
2022-11-30T13:38:36.434Z,29.00
2022-11-30T13:41:07.896Z,28.40
2022-11-30T13:43:40.738Z,28.70
2022-11-30T13:46:22.539Z,29.13
2022-11-30T13:48:50.587Z,31.77
2022-11-30T13:51:39.450Z,30.48
2022-11-30T13:54:41.587Z,31.08
2022-11-30T13:57:19.906Z,31.25
2022-11-30T13:59:55.641Z,29.55
2022-11-30T14:02:36.868Z,29.60
2022-11-30T14:05:19.647Z,29.50
2022-11-30T14:07:53.595Z,30.27
2022-11-30T14:10:32.674Z,28.63
2022-11-30T14:13:03.039Z,27.13
2022-11-30T14:15:50.598Z,27.85
2022-11-30T14:18:22.326Z,27.90
2022-11-30T14:21:01.266Z,29.70
2022-11-30T14:23:31.938Z,29.77
2022-11-30T14:26:10.838Z,30.13
2022-11-30T14:28:50.751Z,28.83
2022-11-30T14:31:24.659Z,31.52
2022-11-30T14:33:56.627Z,32.50
2022-11-30T14:36:28.946Z,30.55
2022-11-30T14:38:56.846Z,31.88
2022-11-30T14:41:30.107Z,31.02
2022-11-30T14:44:13.356Z,30.90
2022-11-30T14:46:41.519Z,28.27
2022-11-30T14:49:25.136Z,28.95
2022-11-30T14:51:58.277Z,30.40
2022-11-30T14:54:43.920Z,30.50
2022-11-30T14:57:42.432Z,31.13
2022-11-30T15:00:18.526Z,32.17
2022-11-30T15:02:46.430Z,30.20
2022-11-30T15:05:17.747Z,28.15
2022-11-30T15:07:46.318Z,32.28
2022-11-30T15:10:29.385Z,31.17
2022-11-30T15:13:00.827Z,33.30
2022-11-30T15:15:31.572Z,31.95
2022-11-30T15:18:14.506Z,31.75
2022-11-30T15:20:44.648Z,30.08
2022-11-30T15:25:49.159Z,29.52
2022-11-30T15:28:34.248Z,29.88
2022-11-30T15:31:07.767Z,31.27
2022-11-30T15:33:42.800Z,30.13
2022-11-30T15:36:32.566Z,32.38
2022-11-30T15:38:58.555Z,31.02
2022-11-30T15:41:26.716Z,31.45
2022-11-30T15:43:57.187Z,31.13
2022-11-30T15:46:33.660Z,30.00
2022-11-30T15:49:17.621Z,27.70
2022-11-30T15:51:59.048Z,28.95
2022-11-30T15:54:46.336Z,29.67
2022-11-30T15:57:15.346Z,30.13
2022-11-30T15:59:44.328Z,29.40
2022-11-30T16:02:32.883Z,31.73
2022-11-30T16:05:23.769Z,31.27
2022-11-30T16:08:03.948Z,30.10
2022-11-30T16:10:40.378Z,32.45
2022-11-30T16:13:07.821Z,33.20
2022-11-30T16:15:36.756Z,33.15
2022-11-30T16:18:20.616Z,32.60
2022-11-30T16:20:59.581Z,31.83
2022-11-30T16:23:28.428Z,34.20
2022-11-30T16:25:56.054Z,33.08
2022-11-30T16:28:23.670Z,33.25
2022-11-30T16:30:51.931Z,34.17
2022-11-30T16:33:22.243Z,37.10
2022-11-30T16:35:57.022Z,35.90
2022-11-30T16:38:25.493Z,38.53
2022-11-30T16:40:56.511Z,37.30
2022-11-30T16:43:25.988Z,38.60
2022-11-30T16:45:53.411Z,35.85
2022-11-30T16:48:20.762Z,36.60
2022-11-30T16:50:48.021Z,37.97
2022-11-30T16:53:15.839Z,36.42
2022-11-30T16:55:43.511Z,37.63
2022-11-30T16:58:10.889Z,35.55
2022-11-30T17:00:40.383Z,37.20
2022-11-30T17:03:32.263Z,36.90
2022-11-30T17:05:59.393Z,40.03
2022-11-30T17:08:26.698Z,38.70
2022-11-30T17:10:55.187Z,38.00
2022-11-30T17:13:22.586Z,38.10
2022-11-30T17:15:50.165Z,39.20
2022-11-30T17:18:17.446Z,40.17
2022-11-30T17:20:44.821Z,37.97
2022-11-30T17:23:12.174Z,39.00
2022-11-30T17:25:39.700Z,37.17
2022-11-30T17:28:06.894Z,36.85
2022-11-30T17:30:34.209Z,36.20
2022-11-30T17:33:01.511Z,37.63
2022-11-30T17:35:28.710Z,35.17
2022-11-30T17:37:56.044Z,35.35
2022-11-30T17:40:23.470Z,36.63
2022-11-30T17:42:50.696Z,38.08
2022-11-30T17:45:18.003Z,34.97
2022-11-30T17:47:45.340Z,35.20
2022-11-30T17:50:14.128Z,34.65
2022-11-30T17:52:41.380Z,33.05
2022-11-30T17:55:09.079Z,34.47
2022-11-30T17:57:37.978Z,34.35
2022-11-30T18:00:06.581Z,35.25
2022-11-30T18:02:33.996Z,33.05
2022-11-30T18:05:01.298Z,33.28
2022-11-30T18:07:28.628Z,31.60
2022-11-30T18:09:56.607Z,32.60
2022-11-30T18:12:23.772Z,34.50
2022-11-30T18:14:51.247Z,34.13
2022-11-30T18:17:18.487Z,31.85
2022-11-30T18:19:45.784Z,32.85
2022-11-30T18:22:13.010Z,31.50
2022-11-30T18:24:40.555Z,33.00
2022-11-30T18:27:07.860Z,32.83
2022-11-30T18:29:35.183Z,32.38
2022-11-30T18:32:02.412Z,32.90
2022-11-30T18:34:29.768Z,33.45
2022-11-30T18:36:57.032Z,29.83
2022-11-30T18:39:24.238Z,31.95
2022-11-30T18:41:51.444Z,28.35
2022-11-30T18:44:18.825Z,29.23
2022-11-30T18:46:46.042Z,27.88
2022-11-30T18:49:13.314Z,28.88
2022-11-30T18:51:40.704Z,27.15
2022-11-30T18:54:10.278Z,27.45
2022-11-30T18:56:38.966Z,27.60
2022-11-30T18:59:09.374Z,28.25
2022-11-30T19:01:37.088Z,29.13
2022-11-30T19:04:08.137Z,28.90
2022-11-30T19:06:37.058Z,29.23
2022-11-30T19:09:08.943Z,28.23
2022-11-30T19:11:37.768Z,27.55
2022-11-30T19:14:05.865Z,27.83
2022-11-30T19:16:35.045Z,28.83
2022-11-30T19:19:05.200Z,30.08
2022-11-30T19:21:33.356Z,29.88
2022-11-30T19:24:00.916Z,29.80
2022-11-30T19:26:28.778Z,30.48
2022-11-30T19:28:57.570Z,28.95
2022-11-30T19:31:26.263Z,30.67
2022-11-30T19:33:55.616Z,29.73
2022-11-30T19:36:26.172Z,30.30
2022-11-30T19:38:54.228Z,28.60
2022-11-30T19:41:22.209Z,28.45
2022-11-30T19:44:02.764Z,29.55
2022-11-30T19:46:32.235Z,28.58
2022-11-30T19:49:01.804Z,28.70
2022-11-30T19:51:30.713Z,28.23
2022-11-30T19:54:01.642Z,28.08
2022-11-30T19:56:34.769Z,27.23
2022-11-30T19:59:05.718Z,27.42
2022-11-30T20:01:34.637Z,25.42
2022-11-30T20:04:03.097Z,28.05
2022-11-30T20:06:36.087Z,27.63
2022-11-30T20:09:05.827Z,26.25
2022-11-30T20:11:33.465Z,25.60
2022-11-30T20:14:01.883Z,26.75
2022-11-30T20:16:29.621Z,26.23
2022-11-30T20:19:01.160Z,26.50
2022-11-30T20:21:31.484Z,25.73
2022-11-30T20:24:01.001Z,27.17
2022-11-30T20:26:34.480Z,26.08
2022-11-30T20:29:03.752Z,26.52
2022-11-30T20:31:33.593Z,26.83
2022-11-30T20:34:01.370Z,28.08
2022-11-30T20:36:28.852Z,27.48
2022-11-30T20:38:56.519Z,28.40
2022-11-30T20:41:25.667Z,25.77
2022-11-30T20:43:53.717Z,28.25
2022-11-30T20:46:36.028Z,25.63
2022-11-30T20:49:12.943Z,26.95
2022-11-30T20:51:41.447Z,25.02
2022-11-30T20:54:09.454Z,27.35
2022-11-30T20:56:38.435Z,25.73
2022-11-30T20:59:17.822Z,27.58
2022-11-30T21:01:47.781Z,28.02
2022-11-30T21:04:15.660Z,26.45
2022-11-30T21:06:45.914Z,27.45
2022-11-30T21:09:17.908Z,26.13
2022-11-30T21:11:45.882Z,27.08
2022-11-30T21:14:13.753Z,25.63
2022-11-30T21:16:41.525Z,26.15
2022-11-30T21:19:10.976Z,27.25
2022-11-30T21:21:38.209Z,25.83
2022-11-30T21:24:08.094Z,26.75
2022-11-30T21:26:38.161Z,26.10
2022-11-30T21:29:10.052Z,27.38
2022-11-30T21:31:37.454Z,26.80
2022-11-30T21:34:05.107Z,26.00
2022-11-30T21:36:32.615Z,27.65
2022-11-30T21:39:06.745Z,24.73
2022-11-30T21:41:38.613Z,26.10
2022-11-30T21:44:07.763Z,27.27
2022-11-30T21:46:35.255Z,28.77
2022-11-30T21:49:03.120Z,28.27
2022-11-30T21:51:32.065Z,28.75
2022-11-30T21:54:01.778Z,28.67
2022-11-30T21:56:34.071Z,29.10
2022-11-30T21:59:01.859Z,28.20
2022-11-30T22:01:32.021Z,29.33
2022-11-30T22:04:00.995Z,30.33
2022-11-30T22:06:30.451Z,29.08
2022-11-30T22:09:03.341Z,28.90
2022-11-30T22:11:31.443Z,29.75
2022-11-30T22:13:58.991Z,28.35
2022-11-30T22:16:33.978Z,30.85
2022-11-30T22:19:03.455Z,30.08
2022-11-30T22:21:31.994Z,28.25
2022-11-30T22:24:02.170Z,27.80
2022-11-30T22:29:04.705Z,29.33
2022-11-30T22:31:36.147Z,30.92
2022-11-30T22:34:04.112Z,30.77
2022-11-30T22:36:33.334Z,31.48
2022-11-30T22:39:04.117Z,29.95
2022-11-30T22:41:31.908Z,31.05
2022-11-30T22:43:59.835Z,31.30
2022-11-30T22:46:32.788Z,29.13
2022-11-30T22:49:02.784Z,29.38
2022-11-30T22:51:32.380Z,28.75
2022-11-30T22:54:00.460Z,26.85
2022-11-30T22:56:41.650Z,28.95
2022-11-30T22:59:11.914Z,27.60
2022-11-30T23:04:12.091Z,24.88
2022-11-30T23:06:41.487Z,24.75
2022-11-30T23:09:14.375Z,24.88
2022-11-30T23:11:42.449Z,24.17
2022-11-30T23:14:12.737Z,23.23
2022-11-30T23:16:41.251Z,22.23
2022-11-30T23:19:09.375Z,23.48
2022-11-30T23:21:41.745Z,22.95
2022-11-30T23:24:17.213Z,22.95
2022-11-30T23:26:44.459Z,22.27
2022-11-30T23:29:13.959Z,23.17
2022-11-30T23:31:44.144Z,22.90
2022-11-30T23:34:15.133Z,22.77
2022-11-30T23:36:42.793Z,21.50
2022-11-30T23:39:13.299Z,21.50
2022-11-30T23:41:41.296Z,22.30
2022-11-30T23:44:09.281Z,22.33
2022-11-30T23:46:36.489Z,22.25
2022-11-30T23:49:04.377Z,21.77
2022-11-30T23:51:31.504Z,23.58
2022-11-30T23:53:58.642Z,22.88
2022-11-30T23:56:25.902Z,23.55
2022-11-30T23:58:53.364Z,23.13
